Latest Weather Observations for Hindmarsh Island

IDS60901

Issued at 10:21 am CST Thursday 28 July 2016 (issued every 10 minutes, with the page automatically refreshed every 10 minutes)

About weather observations | Map of Adelaide area stations | Latest observations for Adelaide area | Other Formats
Station Details ID: 023894 Name: HINDMARSH ISLAND AWS Lat: -35.52 Lon: 138.82 Height: 11.0 m
Data from the previous 72 hours. | See also: Recent months at Hindmarsh Island
Date/Time
CST
Temp
°C
App
Temp
°C
Dew
Point
°C
Rel
Hum
%
Delta-T
°C
Wind Press
QNH
hPa
Press
MSL
hPa
Rain since
9am
mm
Dir  Spd
km/h
Gust
km/h
Spd
kts
Gust
kts
28/10:00am 12.8 11.1 8.3 74 2.2 WNW 7 11 4 6 1028.2 - 0.0
28/09:30am 12.5 10.4 8.2 75 2.1 WNW 9 11 5 6 1028.3 - 0.0
28/09:00am 12.0 9.8 7.7 75 2.1 WNW 9 13 5 7 1028.2 1028.2 0.0
28/08:30am 11.7 9.2 8.0 78 1.8 WNW 11 13 6 7 1027.9 - 0.0
28/08:00am 11.2 8.7 8.2 82 1.5 NW 11 13 6 7 1027.8 - 0.0
28/07:30am 11.1 8.6 8.3 83 1.4 NNW 11 15 6 8 1027.5 - 0.0
28/07:00am 11.0 8.9 8.4 84 1.3 WNW 9 13 5 7 1027.3 - 0.0
28/06:30am 11.1 8.6 8.3 83 1.4 WNW 11 15 6 8 1026.9 - 0.0
28/06:00am 11.2 9.1 8.2 82 1.5 WNW 9 13 5 7 1026.8 1026.8 0.0
28/05:30am 11.3 8.1 8.3 82 1.5 WNW 15 19 8 10 1026.7 - 0.0
28/05:00am 11.2 8.0 8.4 83 1.4 W 15 20 8 11 1026.4 - 0.0
28/04:30am 10.9 7.7 8.5 85 1.2 WNW 15 19 8 10 1026.4 - 0.0
28/04:00am 10.6 8.1 8.0 84 1.3 WNW 11 17 6 9 1026.4 - 0.0
28/03:30am 10.6 7.3 8.0 84 1.3 WNW 15 19 8 10 1026.4 - 0.0
28/03:00am 10.5 7.2 7.9 84 1.2 WNW 15 20 8 11 1026.5 1026.5 0.0
28/02:30am 11.1 7.7 7.8 80 1.6 WNW 15 20 8 11 1026.5 - 0.0
28/02:00am 11.5 7.8 7.8 78 1.8 W 17 22 9 12 1026.8 - 0.0
28/01:30am 11.1 8.5 7.8 80 1.6 WNW 11 15 6 8 1026.7 - 0.0
28/01:00am 11.1 8.1 7.6 79 1.7 WNW 13 17 7 9 1026.4 - 0.0
28/12:30am 11.2 7.7 7.3 77 1.9 WNW 15 20 8 11 1026.4 - 0.0
28/12:00am 11.2 8.3 6.5 73 2.2 NW 11 15 6 8 1026.3 1026.3 0.0
 
Date/Time
CST
Temp
°C
App
Temp
°C
Dew
Point
°C
Rel
Hum
%
Delta-T
°C
Wind Press
QNH
hPa
Press
MSL
hPa
Rain since
9am
mm
Dir  Spd
km/h
Gust
km/h
Spd
kts
Gust
kts
27/11:30pm 11.6 8.2 6.1 69 2.6 NW 13 17 7 9 1026.2 - 0.0
27/11:00pm 11.6 8.2 6.1 69 2.6 WNW 13 19 7 10 1026.5 - 0.0
27/10:30pm 11.6 8.2 6.1 69 2.6 W 13 19 7 10 1026.6 - 0.0
27/10:00pm 11.7 8.3 6.0 68 2.7 WNW 13 17 7 9 1026.6 - 0.0
27/09:30pm 11.6 8.2 5.9 68 2.7 W 13 15 7 8 1026.5 - 0.0
27/09:00pm 11.6 8.3 6.3 70 2.5 WNW 13 19 7 10 1026.5 1026.5 0.0
27/08:30pm 11.9 7.4 6.2 68 2.7 WNW 19 24 10 13 1026.4 - 0.0
27/08:00pm 11.6 8.0 6.7 72 2.3 WNW 15 20 8 11 1026.4 - 0.0
27/07:30pm 11.7 7.0 6.2 69 2.6 WNW 20 28 11 15 1026.3 - 0.0
27/07:00pm 11.5 8.4 5.4 66 2.8 NW 11 13 6 7 1026.0 - 0.0
27/06:30pm 11.6 8.0 5.0 64 3.0 WNW 13 17 7 9 1025.9 - 0.0
27/06:00pm 12.4 8.0 4.6 59 3.5 W 17 22 9 12 1025.4 1025.4 0.0
27/05:30pm 12.5 7.7 4.7 59 3.6 W 19 24 10 13 1025.1 - 0.0
27/05:00pm 12.6 7.3 5.1 60 3.5 WSW 22 28 12 15 1024.9 - 0.0
27/04:30pm 12.7 7.7 6.3 65 3.0 WSW 22 30 12 16 1024.7 - 0.0
27/04:00pm 12.8 8.4 6.4 65 3.0 WSW 19 32 10 17 1024.5 - 0.0
27/03:30pm 13.0 7.9 6.1 63 3.3 WSW 22 28 12 15 1024.2 - 0.0
27/03:00pm 12.9 6.6 5.6 61 3.4 WSW 28 33 15 18 1024.0 1024.0 0.0
27/02:30pm 13.0 5.9 5.7 61 3.4 SW 32 41 17 22 1023.8 - 0.0
27/02:00pm 12.8 6.5 5.9 63 3.2 SW 28 33 15 18 1023.6 - 0.0
27/01:30pm 13.2 5.9 5.4 59 3.6 SW 33 41 18 22 1023.3 - 0.0
27/01:00pm 13.1 6.1 5.8 61 3.4 WSW 32 43 17 23 1023.2 - 0.0
27/12:30pm 13.1 5.8 5.5 60 3.6 SW 33 41 18 22 1023.3 - 0.0
27/12:00pm 14.6 8.4 6.2 57 4.0 WSW 28 37 15 20 1023.4 1023.4 0.0
27/11:30am 13.9 6.9 5.8 58 3.8 WSW 32 43 17 23 1023.2 - 0.0
27/11:00am 13.7 7.2 6.6 62 3.4 SW 30 39 16 21 1022.8 - 0.0
27/10:30am 12.4 5.4 5.8 64 3.1 SW 32 41 17 22 1022.6 - 0.0
27/10:00am 12.5 5.8 5.4 62 3.3 SW 30 37 16 20 1022.2 - 0.0
27/09:30am 12.7 5.8 4.7 58 3.7 SW 30 37 16 20 1021.5 - 0.0
27/09:00am 11.9 2.7 3.4 56 3.7 SSW 41 48 22 26 1021.5 1021.3 7.2
27/08:30am 11.8 3.2 4.5 61 3.3 SSW 39 52 21 28 1020.8 - 7.2
27/08:00am 11.8 2.8 4.5 61 3.3 SSW 41 54 22 29 1020.1 - 7.2
27/07:30am 11.7 3.8 4.4 61 3.3 SSW 35 48 19 26 1019.5 - 7.2
27/07:00am 11.3 3.1 6.4 72 2.3 SW 39 54 21 29 1018.8 - 7.2
27/06:30am 10.8 1.3 6.9 77 1.8 SW 46 61 25 33 1018.4 - 7.2
27/06:00am 11.7 2.5 5.6 66 2.8 SW 43 52 23 28 1017.7 1017.6 7.2
27/05:30am 11.3 1.5 5.2 66 2.8 SW 46 57 25 31 1017.0 - 7.2
27/05:00am 11.6 0.8 4.3 61 3.3 SSW 50 61 27 33 1016.2 - 7.2
27/04:32am 11.6 1.5 5.7 67 2.7 SW 48 67 26 36 1015.3 - 7.2
27/04:30am 11.6 1.5 5.7 67 2.7 SW 48 67 26 36 1015.4 - 7.2
27/04:29am 11.6 1.5 5.7 67 2.7 SW 48 67 26 36 1015.3 - 7.2
27/04:00am 11.6 1.4 7.1 74 2.2 SW 50 61 27 33 1015.0 - 7.2
27/03:30am 11.8 3.2 8.1 78 1.8 SW 43 59 23 32 1014.5 - 7.2
27/03:27am 11.8 3.6 8.3 79 1.7 SW 41 59 22 32 1014.6 - 7.2
27/03:00am 11.5 3.7 8.4 81 1.5 WSW 39 63 21 34 1014.1 1014.2 7.2
27/02:54am 11.5 2.8 8.4 81 1.5 SW 44 57 24 31 1014.1 - 7.2
27/02:30am 11.1 5.0 8.1 82 1.5 W 30 43 16 23 1014.0 - 7.2
27/02:00am 10.6 4.8 8.0 84 1.3 W 28 39 15 21 1013.4 - 7.2
27/01:30am 10.5 3.6 7.4 81 1.5 W 33 46 18 25 1012.9 - 7.0
27/01:15am 11.1 4.2 7.2 77 1.9 W 33 54 18 29 1012.7 - 7.0
27/01:00am 11.0 5.3 6.9 76 1.9 W 26 35 14 19 1012.2 - 7.0
27/12:30am 10.9 4.5 6.8 76 1.9 W 30 41 16 22 1012.0 - 7.0
27/12:00am 11.1 4.7 6.8 75 2.0 W 30 39 16 21 1011.6 1011.6 7.0
 
Date/Time
CST
Temp
°C
App
Temp
°C
Dew
Point
°C
Rel
Hum
%
Delta-T
°C
Wind Press
QNH
hPa
Press
MSL
hPa
Rain since
9am
mm
Dir  Spd
km/h
Gust
km/h
Spd
kts
Gust
kts
26/11:30pm 10.8 5.2 7.1 78 1.8 W 26 35 14 19 1011.2 - 7.0
26/11:12pm 10.8 4.0 7.1 78 1.8 W 32 50 17 27 1011.2 - 7.0
26/11:09pm 10.8 4.0 7.1 78 1.8 W 32 50 17 27 1011.2 - 7.0
26/11:00pm 11.1 4.2 7.4 78 1.8 W 33 50 18 27 1011.0 - 7.0
26/10:30pm 11.4 5.2 6.3 71 2.4 W 28 37 15 20 1010.5 - 7.0
26/10:00pm 11.5 5.8 6.8 73 2.2 W 26 35 14 19 1010.3 - 7.0
26/09:30pm 11.4 4.5 6.5 72 2.3 W 32 46 17 25 1009.6 - 7.0
26/09:00pm 11.3 5.2 6.6 73 2.2 W 28 35 15 19 1009.0 1009.1 7.0
26/08:30pm 11.2 4.7 6.3 72 2.3 W 30 41 16 22 1008.6 - 7.0
26/08:00pm 11.4 4.4 6.7 73 2.2 W 33 48 18 26 1008.1 - 7.0
26/07:30pm 11.5 4.6 6.6 72 2.3 W 32 44 17 24 1007.5 - 7.0
26/07:28pm 11.5 4.4 6.6 72 2.3 W 33 52 18 28 1007.4 - 7.0
26/07:25pm 11.5 4.4 6.6 72 2.3 W 33 52 18 28 1007.4 - 7.0
26/07:00pm 11.5 4.6 7.2 75 2.1 W 33 46 18 25 1006.9 - 7.0
26/06:30pm 10.6 4.7 7.5 81 1.5 WNW 28 39 15 21 1006.3 - 7.0
26/06:08pm 10.8 3.1 7.1 78 1.8 W 37 57 20 31 1006.1 - -
26/06:05pm 10.8 2.7 7.1 78 1.8 W 39 57 21 31 1006.1 - 7.0
26/06:00pm 10.9 3.1 6.8 76 1.9 W 37 52 20 28 1006.1 1006.0 7.0
26/05:30pm 9.0 0.7 6.1 82 1.3 W 39 59 21 32 1005.5 - 6.8
26/05:26pm 11.3 3.2 8.5 83 1.4 W 41 59 22 32 1005.8 - 4.0
26/05:24pm 10.5 2.2 7.7 83 1.3 W 41 63 22 34 1006.0 - 5.6
26/05:21pm 11.3 3.6 8.5 83 1.4 WNW 39 63 21 34 1005.5 - 3.6
26/05:10pm 10.7 4.2 8.3 85 1.2 NNW 32 50 17 27 1004.2 - 2.4
26/05:07pm 10.7 4.2 8.3 85 1.2 NNW 32 50 17 27 1004.2 - 2.4
26/05:00pm 10.6 4.5 8.2 85 1.2 NNW 30 43 16 23 1004.4 - 2.0
26/04:43pm 10.8 2.9 7.9 82 1.4 NW 39 57 21 31 1005.0 - 1.0
26/04:30pm 11.2 3.5 7.1 76 2.0 NNW 37 52 20 28 1004.9 - 0.0
26/04:00pm 11.3 3.5 6.8 74 2.1 NNW 37 57 20 31 1005.8 - 0.0
26/03:30pm 11.6 3.6 7.3 75 2.1 NW 39 61 21 33 1007.0 - 0.0
26/03:05pm 12.0 4.6 6.9 71 2.4 NW 35 56 19 30 1007.6 - 0.0
26/03:02pm 12.0 4.6 6.9 71 2.4 NW 35 56 19 30 1007.6 - 0.0
26/03:00pm 11.9 4.2 7.0 72 2.4 NW 37 50 20 27 1007.7 1007.8 0.0
26/02:30pm 11.7 4.2 6.2 69 2.6 NW 35 57 19 31 1007.9 - 0.0
26/02:09pm 12.1 5.2 6.6 69 2.6 NW 32 50 17 27 1008.8 - 0.0
26/02:00pm 11.8 4.4 6.7 71 2.4 NW 35 50 19 27 1009.0 - 0.0
26/01:40pm 11.6 4.5 6.3 70 2.5 NNW 33 52 18 28 1009.4 - 0.0
26/01:30pm 11.7 3.7 5.8 67 2.7 NW 37 50 20 27 1009.9 - 0.0
26/01:00pm 12.7 4.9 4.9 59 3.6 NNW 35 56 19 30 1010.0 - 0.0
26/12:30pm 12.3 3.4 5.2 62 3.3 NW 41 61 22 33 1010.9 - 0.0
26/12:00pm 12.3 5.1 5.7 64 3.1 NW 33 56 18 30 1011.8 1011.9 0.0
26/11:32am 12.2 5.4 5.1 62 3.3 NW 30 50 16 27 1012.3 - 0.0
26/11:30am 12.2 5.5 5.6 64 3.1 NW 30 50 16 27 1012.3 - 0.0
26/11:29am 12.2 5.4 5.1 62 3.3 NW 30 50 16 27 1012.3 - 0.0
26/11:00am 11.6 3.9 5.3 65 2.9 NW 35 46 19 25 1012.9 - 0.0
26/10:55am 11.5 5.1 5.2 65 2.9 NW 28 46 15 25 1013.0 - 0.0
26/10:52am 11.5 5.1 5.2 65 2.9 NW 28 46 15 25 1013.0 - 0.0
26/10:30am 11.5 4.6 4.7 63 3.1 NW 30 44 16 24 1013.1 - 0.0
26/10:00am 11.8 7.0 5.4 65 3.0 WNW 20 33 11 18 1013.5 - 0.0
26/09:30am 10.6 6.1 6.2 74 2.0 NW 19 24 10 13 1013.9 - 0.0
26/09:00am 9.0 6.4 6.3 83 1.2 N 9 17 5 9 1014.2 1014.2 3.0
26/08:30am 8.6 5.6 6.2 85 1.1 NNW 11 15 6 8 1014.0 - 3.0
26/08:00am 8.6 4.4 5.7 82 1.3 NW 17 24 9 13 1014.5 - 2.6
26/07:30am 8.2 3.8 4.8 79 1.5 NNW 17 20 9 11 1014.4 - 2.2
26/07:00am 9.1 4.4 5.1 76 1.8 NW 19 26 10 14 1014.5 - 2.2
26/06:30am 9.1 3.9 3.3 67 2.5 NW 20 28 11 15 1014.4 - 2.2
26/06:00am 9.0 4.3 3.4 68 2.4 NW 17 22 9 12 1014.4 1014.3 2.2
26/05:30am 8.7 4.4 3.3 69 2.3 WNW 15 20 8 11 1014.2 - 2.2
26/05:00am 8.8 3.7 3.2 68 2.4 WNW 19 24 10 13 1014.2 - 2.2
26/04:30am 9.0 3.8 3.4 68 2.4 WNW 20 28 11 15 1014.2 - 2.2
26/04:00am 8.9 3.8 3.3 68 2.4 WNW 19 26 10 14 1014.4 - 2.2
26/03:30am 8.8 3.2 3.2 68 2.4 WNW 22 28 12 15 1014.5 - 2.2
26/03:00am 8.9 3.8 3.3 68 2.4 WNW 19 26 10 14 1014.8 1014.9 2.2
26/02:30am 9.0 4.0 3.4 68 2.4 W 19 26 10 14 1015.0 - 2.2
26/02:00am 8.6 3.9 3.4 70 2.2 WNW 17 20 9 11 1015.2 - 2.2
26/01:30am 8.6 3.5 2.8 67 2.5 WNW 19 24 10 13 1015.4 - 2.2
26/01:00am 9.1 3.8 2.9 65 2.6 W 20 26 11 14 1015.5 - 2.2
26/12:30am 8.9 3.7 2.3 63 2.8 WNW 19 24 10 13 1015.6 - 2.2
26/12:00am 9.1 4.2 2.2 62 2.9 WNW 17 20 9 11 1015.5 1015.5 2.2
 
Date/Time
CST
Temp
°C
App
Temp
°C
Dew
Point
°C
Rel
Hum
%
Delta-T
°C
Wind Press
QNH
hPa
Press
MSL
hPa
Rain since
9am
mm
Dir  Spd
km/h
Gust
km/h
Spd
kts
Gust
kts
25/11:30pm 9.6 4.4 2.5 61 3.0 WNW 19 24 10 13 1015.5 - 2.2
25/11:00pm 9.7 3.9 2.3 60 3.1 WNW 22 30 12 16 1015.5 - 2.2
25/10:30pm 9.3 3.6 2.6 63 2.8 W 22 30 12 16 1015.3 - 2.2
25/10:00pm 9.2 4.4 2.8 64 2.7 W 17 24 9 13 1015.2 - 2.2
25/09:30pm 9.2 4.5 3.2 66 2.6 W 17 24 9 13 1015.2 - 2.2
25/09:00pm 10.1 4.0 2.7 60 3.2 W 24 33 13 18 1015.0 1015.0 2.2
25/08:34pm 10.5 2.2 2.4 57 3.5 W 35 54 19 29 1014.6 - 2.2
25/08:33pm 10.6 2.4 2.7 58 3.4 W 35 54 19 29 1014.6 - 2.2
25/08:30pm 10.7 2.1 2.5 57 3.5 W 37 54 20 29 1014.6 - 2.2
25/08:17pm 10.6 3.3 2.4 57 3.5 W 30 50 16 27 1014.5 - 2.2
25/08:14pm 10.6 3.3 2.4 57 3.5 W 30 50 16 27 1014.5 - 2.2
25/08:00pm 10.7 4.3 3.0 59 3.3 W 26 41 14 22 1014.3 - 2.2
25/07:30pm 10.4 3.5 2.7 59 3.3 W 28 37 15 20 1013.9 - 2.2
25/07:00pm 10.6 3.8 3.2 60 3.2 W 28 39 15 21 1013.7 - 2.2
25/06:30pm 11.3 4.2 3.6 59 3.4 W 30 43 16 23 1013.1 - 2.2
25/06:23pm 11.5 4.1 3.8 59 3.4 W 32 50 17 27 1012.9 - 2.2
25/06:20pm 11.5 4.1 3.8 59 3.4 W 32 50 17 27 1012.9 - 2.2
25/06:00pm 11.6 4.5 5.3 65 2.9 W 32 46 17 25 1012.5 1012.5 2.2
25/05:40pm 11.4 4.3 5.7 68 2.6 W 32 54 17 29 1012.1 - 2.2
25/05:30pm 11.9 4.8 5.5 65 3.0 W 32 43 17 23 1011.8 - 2.2
25/05:00pm 11.8 4.6 5.7 66 2.8 W 33 46 18 25 1011.4 - 2.2
25/04:41pm 12.1 4.5 5.9 66 2.9 W 35 54 19 29 1011.0 - 2.2
25/04:38pm 12.1 4.5 5.9 66 2.9 W 35 54 19 29 1011.0 - 2.2
25/04:30pm 12.1 4.6 6.2 67 2.8 W 35 48 19 26 1010.9 - 2.2
25/04:00pm 11.7 4.6 8.2 79 1.7 WSW 35 52 19 28 1010.7 - 2.2
25/03:44pm 11.2 4.8 8.4 83 1.4 WSW 32 57 17 31 1010.5 - 2.2
25/03:41pm 11.2 4.6 8.4 83 1.4 WSW 33 57 18 31 1010.5 - 2.2
25/03:30pm 11.3 5.0 8.9 85 1.2 WSW 32 44 17 24 1010.6 - 2.2
25/03:15pm 11.6 4.3 8.6 82 1.5 WSW 37 59 20 32 1010.0 - 1.8
25/03:10pm 12.0 6.0 8.8 81 1.6 W 30 48 16 26 1010.2 - 1.8
25/03:00pm 12.2 6.3 8.9 80 1.7 W 30 44 16 24 1010.1 1010.1 1.8
25/02:45pm 12.2 1.6 8.5 78 1.8 W 54 72 29 39 1009.8 - 1.6
25/02:43pm 12.2 1.6 8.5 78 1.8 W 54 72 29 39 1009.8 - 1.6
25/02:40pm 12.2 1.1 8.7 79 1.7 W 57 72 31 39 1009.5 - 1.6
25/02:37pm 12.2 4.6 9.2 82 1.5 WNW 39 67 21 36 1009.5 - 1.6
25/02:34pm 12.2 4.6 9.2 82 1.5 WNW 39 67 21 36 1009.5 - 1.6
25/02:30pm 12.2 4.7 9.6 84 1.3 WNW 39 56 21 30 1009.4 - 1.2
25/02:00pm 12.6 3.3 9.2 80 1.7 WNW 48 67 26 36 1008.6 - 0.4
25/01:31pm 13.5 3.4 8.8 73 2.4 NW 52 70 28 38 1008.5 - 0.0
25/01:30pm 13.7 3.5 8.5 71 2.6 NW 52 70 28 38 1008.5 - 0.0
25/01:02pm 13.8 1.8 8.4 70 2.7 NW 61 80 33 43 1008.6 - 0.0
25/01:00pm 13.9 1.5 8.1 68 2.9 NW 63 80 34 43 1008.5 - 0.0
25/12:58pm 13.8 0.6 8.0 68 2.9 NW 67 80 36 43 1008.3 - 0.0
25/12:30pm 13.7 4.5 8.1 69 2.8 NW 46 67 25 36 1009.5 - 0.0
25/12:02pm 13.5 3.6 8.1 70 2.7 NW 50 69 27 37 1010.0 - 0.0
25/12:00pm 13.3 3.0 8.0 70 2.6 NW 52 69 28 37 1009.9 1010.0 0.0
25/11:33am 13.1 2.7 7.8 70 2.6 NW 52 72 28 39 1010.3 - 0.0
25/11:30am 13.1 2.7 7.8 70 2.6 NW 52 72 28 39 1010.3 - 0.0
25/11:00am 13.1 3.7 7.1 67 2.9 NW 46 69 25 37 1011.3 - 0.0
25/10:30am 13.2 5.4 6.8 65 3.1 NW 37 63 20 34 1012.0 - 0.0

Latest Capital City Observations: Canberra | Sydney | Melbourne | Brisbane | Adelaide | Perth | Hobart | Darwin

Other Formats:

Comma delimited format used in spreadsheet applications
http://www.bom.gov.au/fwo/IDS60901/IDS60901.94677.axf

JavaScript Object Notation format (JSON) in row-major order
http://www.bom.gov.au/fwo/IDS60901/IDS60901.94677.json